Time;durP1;ratioP1;P1;durP2;ratioP2;P2;SDS_P1;SDS_P2;PMS_P1;PMS_P2;Temp;Humidity;BMP_temperature;BMP_pressure;BME280_temperature;BME280_humidity;BME280_pressure;Samples;Min_cycle;Max_cycle;Signal;HPM_P1;HPM_P2
2023/10/05 00:03:44;;;;;;;2.95;1.40;;;13.00;99.90;;;;;;5076827;28;20044;-78
2023/10/05 00:06:24;;;;;;;5.13;1.70;;;12.90;99.90;;;;;;5076233;28;20145;-78
2023/10/05 00:08:52;;;;;;;6.38;1.80;;;12.90;99.90;;;;;;5076729;28;20181;-78
2023/10/05 00:11:37;;;;;;;3.70;1.70;;;12.90;99.90;;;;;;5076013;28;20056;-76
2023/10/05 00:14:07;;;;;;;4.75;1.58;;;12.90;99.90;;;;;;5076602;28;20048;-78
2023/10/05 00:16:46;;;;;;;3.90;1.60;;;12.90;99.90;;;;;;5075809;28;20044;-78
2023/10/05 00:19:14;;;;;;;3.35;1.50;;;12.90;99.90;;;;;;5075613;28;20355;-77
2023/10/05 00:21:51;;;;;;;4.63;1.60;;;12.90;99.90;;;;;;5076618;28;20124;-77
2023/10/05 00:24:34;;;;;;;4.65;1.45;;;12.90;99.90;;;;;;5075900;28;20069;-78
2023/10/05 00:27:01;;;;;;;4.32;1.60;;;12.90;99.90;;;;;;5075669;28;20159;-77
2023/10/05 00:31:52;;;;;;;5.95;1.60;;;12.90;99.90;;;;;;5075338;28;20048;-78
2023/10/05 00:36:50;;;;;;;6.97;1.67;;;12.90;99.90;;;;;;5075624;28;20056;-77
2023/10/05 00:39:17;;;;;;;6.15;1.63;;;12.90;99.90;;;;;;5075684;28;20144;-77
2023/10/05 00:41:42;;;;;;;5.47;1.65;;;12.90;99.90;;;;;;5074442;28;20129;-77
2023/10/05 00:44:08;;;;;;;2.90;1.40;;;12.90;99.90;;;;;;5074258;28;20087;-78
2023/10/05 00:46:37;;;;;;;4.53;1.60;;;13.00;99.90;;;;;;5075330;28;20059;-79
2023/10/05 00:51:31;;;;;;;3.65;1.60;;;13.00;99.90;;;;;;5075319;28;20374;-77
2023/10/05 00:54:03;;;;;;;4.20;1.90;;;13.00;99.90;;;;;;5075246;28;20052;-76
2023/10/05 00:56:34;;;;;;;5.53;1.80;;;13.00;99.90;;;;;;5074872;28;20490;-77
2023/10/05 00:59:07;;;;;;;4.00;1.80;;;13.00;99.90;;;;;;5073966;28;20405;-78
2023/10/05 01:01:58;;;;;;;5.32;1.63;;;13.00;99.90;;;;;;5075716;28;20394;-78
2023/10/05 01:04:34;;;;;;;6.20;1.88;;;13.00;99.90;;;;;;5075189;28;20059;-79
2023/10/05 01:07:18;;;;;;;4.80;1.65;;;12.90;99.90;;;;;;5075565;28;20049;-78
2023/10/05 01:14:58;;;;;;;3.72;1.70;;;12.90;99.90;;;;;;5075576;28;20087;-77
2023/10/05 01:17:26;;;;;;;5.22;2.15;;;12.90;99.90;;;;;;5075317;28;20044;-78
2023/10/05 01:20:08;;;;;;;3.13;1.63;;;13.00;99.90;;;;;;5074254;28;20048;-78
2023/10/05 01:22:40;;;;;;;4.10;1.73;;;13.00;99.90;;;;;;5073773;28;20128;-76
2023/10/05 01:25:08;;;;;;;5.60;1.75;;;12.90;99.90;;;;;;5075137;28;20060;-78
2023/10/05 01:27:35;;;;;;;5.10;1.80;;;13.00;99.90;;;;;;5074591;28;20124;-79
2023/10/05 01:30:03;;;;;;;8.30;2.08;;;13.00;99.90;;;;;;5075037;28;20109;-78
2023/10/05 01:32:29;;;;;;;3.08;1.52;;;13.00;99.90;;;;;;5073893;28;20080;-75
2023/10/05 01:34:54;;;;;;;5.50;2.20;;;12.90;99.90;;;;;;5073292;28;20505;-77
2023/10/05 01:37:26;;;;;;;4.57;1.75;;;12.90;99.90;;;;;;5074356;28;20508;-78
2023/10/05 01:39:52;;;;;;;5.90;1.85;;;12.90;99.90;;;;;;5074329;28;20041;-78
2023/10/05 01:42:21;;;;;;;2.85;1.45;;;12.90;99.90;;;;;;5073084;28;20048;-78
2023/10/05 01:44:47;;;;;;;5.63;2.00;;;13.00;99.90;;;;;;5074368;28;20189;-78
2023/10/05 01:47:17;;;;;;;4.45;1.60;;;13.00;99.90;;;;;;5074174;28;20143;-78
2023/10/05 01:49:46;;;;;;;5.55;1.70;;;13.00;99.90;;;;;;5074179;28;20044;-79
2023/10/05 01:52:17;;;;;;;4.97;1.92;;;13.00;99.90;;;;;;5074131;28;20040;-78
2023/10/05 01:54:44;;;;;;;4.32;1.67;;;12.90;99.90;;;;;;5074099;28;20045;-79
2023/10/05 01:57:12;;;;;;;5.57;1.58;;;13.00;99.90;;;;;;5074090;28;20048;-77
2023/10/05 01:59:40;;;;;;;4.15;1.60;;;13.00;99.90;;;;;;5072754;28;20393;-77
2023/10/05 02:02:10;;;;;;;4.88;1.50;;;13.00;99.90;;;;;;5074014;28;20044;-78
2023/10/05 02:04:49;;;;;;;5.18;1.85;;;13.00;99.90;;;;;;5073996;28;20041;-77
2023/10/05 02:07:15;;;;;;;3.90;1.50;;;13.00;99.90;;;;;;5074003;28;20090;-77
2023/10/05 02:09:41;;;;;;;5.18;1.77;;;13.00;99.90;;;;;;5073796;28;20044;-74
2023/10/05 02:12:07;;;;;;;7.75;1.85;;;13.00;99.90;;;;;;5074144;28;20048;-77
2023/10/05 02:14:36;;;;;;;3.67;1.85;;;13.00;99.90;;;;;;5074464;28;20044;-78
2023/10/05 02:17:03;;;;;;;3.90;1.60;;;12.90;99.90;;;;;;5074656;28;20048;-77
2023/10/05 02:19:30;;;;;;;6.45;2.05;;;13.00;99.90;;;;;;5073755;28;20051;-77
2023/10/05 02:21:58;;;;;;;5.35;2.00;;;12.90;99.90;;;;;;5073698;28;20049;-77
2023/10/05 02:24:25;;;;;;;4.97;2.10;;;12.90;99.90;;;;;;5074333;28;20056;-77
2023/10/05 02:29:31;;;;;;;4.65;1.70;;;13.00;99.90;;;;;;5073731;28;20051;-78
2023/10/05 02:34:41;;;;;;;5.25;1.80;;;12.90;99.90;;;;;;5073646;28;20135;-77
2023/10/05 02:37:11;;;;;;;4.00;2.00;;;13.00;99.90;;;;;;5073563;28;20044;-79
2023/10/05 02:39:41;;;;;;;5.60;2.25;;;12.90;99.90;;;;;;5074287;28;20359;-77
2023/10/05 02:42:12;;;;;;;5.75;1.77;;;12.90;99.90;;;;;;5074892;28;20454;-78
2023/10/05 02:44:43;;;;;;;5.40;1.70;;;12.90;99.90;;;;;;5080210;28;20048;-78
2023/10/05 02:47:10;;;;;;;3.65;1.70;;;12.90;99.90;;;;;;5079921;28;20110;-77
2023/10/05 02:49:43;;;;;;;5.57;1.95;;;12.90;99.90;;;;;;5080476;28;20055;-76
2023/10/05 02:52:16;;;;;;;5.53;1.60;;;12.90;99.90;;;;;;5080260;28;20097;-77
2023/10/05 02:54:47;;;;;;;3.83;1.83;;;12.80;99.90;;;;;;5079757;28;20056;-78
2023/10/05 02:57:16;;;;;;;4.35;1.98;;;12.90;99.90;;;;;;5080630;28;20434;-77
2023/10/05 02:59:43;;;;;;;4.65;1.90;;;12.90;99.90;;;;;;5079899;28;20041;-78
2023/10/05 03:02:11;;;;;;;4.47;1.77;;;12.90;99.90;;;;;;5080043;28;20171;-79
2023/10/05 03:04:54;;;;;;;6.65;1.85;;;13.00;99.90;;;;;;5079805;28;20507;-79
2023/10/05 03:07:24;;;;;;;5.47;2.10;;;13.00;99.90;;;;;;5080009;28;20481;-77
2023/10/05 03:09:52;;;;;;;5.97;1.90;;;13.00;99.90;;;;;;5079940;28;20060;-78
2023/10/05 03:12:20;;;;;;;6.22;2.08;;;13.10;99.90;;;;;;5080541;28;20080;-77
2023/10/05 03:14:47;;;;;;;6.85;2.08;;;13.10;99.90;;;;;;5080373;28;20040;-79
2023/10/05 03:17:18;;;;;;;7.47;2.20;;;13.10;99.90;;;;;;5078949;28;20047;-78
2023/10/05 03:19:44;;;;;;;6.13;2.05;;;13.00;99.90;;;;;;5080110;28;20045;-78
2023/10/05 03:22:13;;;;;;;5.07;1.50;;;13.10;99.90;;;;;;5079794;28;20532;-78
2023/10/05 03:24:47;;;;;;;6.68;2.10;;;13.00;99.90;;;;;;5079609;28;20137;-77
2023/10/05 03:27:14;;;;;;;3.95;2.08;;;13.00;99.90;;;;;;5080177;28;20052;-76
2023/10/05 03:29:45;;;;;;;5.75;2.00;;;13.00;99.90;;;;;;5079626;28;20041;-78
2023/10/05 03:34:37;;;;;;;5.50;2.35;;;13.00;99.90;;;;;;5079735;28;20055;-78
2023/10/05 03:37:08;;;;;;;5.72;2.13;;;13.00;99.90;;;;;;5079946;28;20048;-76
2023/10/05 03:39:38;;;;;;;4.80;2.17;;;13.00;99.90;;;;;;5079945;28;20389;-78
2023/10/05 03:42:07;;;;;;;5.43;2.25;;;12.90;99.90;;;;;;5078971;28;20045;-78
2023/10/05 03:44:34;;;;;;;6.18;2.40;;;12.90;99.90;;;;;;5078437;28;20052;-78
2023/10/05 03:47:00;;;;;;;5.88;2.05;;;12.90;99.90;;;;;;5079631;28;20143;-78
2023/10/05 03:49:26;;;;;;;5.00;2.25;;;12.90;99.90;;;;;;5080097;28;20359;-78
2023/10/05 03:51:51;;;;;;;5.10;2.05;;;12.90;99.90;;;;;;5079659;28;20050;-78
2023/10/05 03:54:21;;;;;;;5.95;2.25;;;12.90;99.90;;;;;;5077262;28;20056;-78
2023/10/05 03:56:50;;;;;;;6.00;2.10;;;12.90;99.90;;;;;;5076246;28;20044;-78
2023/10/05 03:59:16;;;;;;;3.83;1.98;;;12.90;99.90;;;;;;5076133;28;20482;-78
2023/10/05 04:01:48;;;;;;;4.78;2.30;;;12.90;99.90;;;;;;5077105;28;20091;-78
2023/10/05 04:04:21;;;;;;;4.50;2.17;;;12.90;99.90;;;;;;5076541;28;20048;-78
2023/10/05 04:06:51;;;;;;;5.65;2.15;;;12.90;99.90;;;;;;5076653;28;20056;-78
2023/10/05 04:09:19;;;;;;;5.55;1.92;;;12.90;99.90;;;;;;5076680;28;20072;-78
2023/10/05 04:11:45;;;;;;;6.55;1.90;;;12.80;99.90;;;;;;5075907;28;20131;-78
2023/10/05 04:14:12;;;;;;;4.30;2.25;;;12.80;99.90;;;;;;5075007;28;20063;-77
2023/10/05 04:16:38;;;;;;;4.93;2.10;;;12.90;99.90;;;;;;5075000;28;20045;-78
2023/10/05 04:19:04;;;;;;;5.18;2.28;;;12.90;99.90;;;;;;5075841;28;20186;-78
2023/10/05 04:21:32;;;;;;;4.65;2.00;;;12.90;99.90;;;;;;5076796;28;20094;-77
2023/10/05 04:24:02;;;;;;;5.30;2.15;;;12.90;99.90;;;;;;5075735;28;20119;-78
2023/10/05 04:26:37;;;;;;;6.57;2.33;;;12.90;99.90;;;;;;5076405;28;20141;-77
2023/10/05 04:29:09;;;;;;;4.68;2.10;;;12.90;99.90;;;;;;5075757;28;20049;-78
2023/10/05 04:31:37;;;;;;;7.05;2.35;;;12.90;99.90;;;;;;5075088;28;20036;-78
2023/10/05 04:34:13;;;;;;;6.40;2.10;;;12.90;99.90;;;;;;5076110;28;20090;-78
2023/10/05 04:36:41;;;;;;;7.30;2.20;;;13.00;99.90;;;;;;5076493;28;20122;-78
2023/10/05 04:39:07;;;;;;;6.72;2.10;;;12.90;99.90;;;;;;5075370;28;20079;-78
2023/10/05 04:41:39;;;;;;;4.72;2.67;;;13.00;99.90;;;;;;5075985;28;20094;-77
2023/10/05 04:44:12;;;;;;;4.88;1.92;;;13.00;99.90;;;;;;5075377;28;20047;-78
2023/10/05 04:46:47;;;;;;;5.88;2.30;;;13.00;99.90;;;;;;5075489;28;20110;-79
2023/10/05 04:49:13;;;;;;;7.43;2.08;;;13.10;99.90;;;;;;5075399;28;20048;-78
2023/10/05 04:51:40;;;;;;;5.10;2.00;;;13.10;99.90;;;;;;5075299;28;20106;-78
2023/10/05 04:54:10;;;;;;;5.35;1.90;;;13.10;99.90;;;;;;5075825;28;20051;-78
2023/10/05 04:56:43;;;;;;;5.53;2.00;;;13.10;99.90;;;;;;5075200;28;20091;-78
2023/10/05 05:01:56;;;;;;;4.20;1.95;;;13.20;99.90;;;;;;5075150;28;20084;-77
2023/10/05 05:06:58;;;;;;;6.47;2.20;;;13.10;99.90;;;;;;5075089;28;20102;-79
2023/10/05 05:09:29;;;;;;;7.80;2.05;;;13.10;99.90;;;;;;5074032;28;20056;-76
2023/10/05 05:12:04;;;;;;;3.85;1.90;;;13.10;99.90;;;;;;5074934;28;20086;-78
2023/10/05 05:14:41;;;;;;;6.22;2.13;;;13.20;99.90;;;;;;5075675;28;20045;-77
2023/10/05 05:17:07;;;;;;;6.65;1.98;;;13.20;99.90;;;;;;5075658;28;20052;-77
2023/10/05 05:19:36;;;;;;;4.05;1.92;;;13.10;99.90;;;;;;5074255;28;20474;-78
2023/10/05 05:22:08;;;;;;;4.35;1.90;;;13.10;99.90;;;;;;5073478;28;20401;-77
2023/10/05 05:24:34;;;;;;;6.53;2.15;;;13.10;99.90;;;;;;5075473;28;20045;-78
2023/10/05 05:27:03;;;;;;;4.05;1.77;;;13.10;99.90;;;;;;5074550;28;20063;-76
2023/10/05 05:29:30;;;;;;;6.68;2.00;;;13.10;99.90;;;;;;5074521;28;20128;-80
2023/10/05 05:32:10;;;;;;;4.63;1.90;;;13.10;99.90;;;;;;5074375;28;20482;-79
2023/10/05 05:34:44;;;;;;;6.07;1.80;;;13.10;99.90;;;;;;5075271;28;20083;-79
2023/10/05 05:37:14;;;;;;;6.10;2.22;;;13.00;99.90;;;;;;5075165;28;20055;-76
2023/10/05 05:39:40;;;;;;;4.55;1.80;;;13.00;99.90;;;;;;5074254;28;20135;-79
2023/10/05 05:42:15;;;;;;;6.28;2.53;;;13.00;99.90;;;;;;5074134;28;20048;-79
2023/10/05 05:44:41;;;;;;;3.72;2.08;;;13.00;99.90;;;;;;5074292;28;20049;-79
2023/10/05 05:47:10;;;;;;;4.70;2.10;;;13.00;99.90;;;;;;5073940;28;20439;-78
2023/10/05 05:49:38;;;;;;;5.78;2.30;;;13.10;99.90;;;;;;5074588;28;20115;-79
2023/10/05 05:52:05;;;;;;;5.85;1.90;;;13.10;99.90;;;;;;5073995;28;20401;-79
2023/10/05 05:54:36;;;;;;;5.25;2.05;;;13.10;99.90;;;;;;5074029;28;20567;-79
2023/10/05 05:57:06;;;;;;;6.10;2.28;;;13.10;99.90;;;;;;5073992;28;20048;-78
2023/10/05 05:59:34;;;;;;;5.28;2.03;;;13.10;99.90;;;;;;5073850;28;20508;-79
2023/10/05 06:02:03;;;;;;;7.75;2.08;;;13.00;99.90;;;;;;5073948;28;20166;-79
2023/10/05 06:04:32;;;;;;;4.65;2.08;;;13.00;99.90;;;;;;5073969;28;20045;-79
2023/10/05 06:06:59;;;;;;;5.60;2.30;;;13.10;99.90;;;;;;5073954;28;20470;-78
2023/10/05 06:09:26;;;;;;;4.38;1.80;;;13.10;99.90;;;;;;5074400;28;20493;-80
2023/10/05 06:11:53;;;;;;;6.93;2.05;;;13.00;99.90;;;;;;5074305;28;20101;-79
2023/10/05 06:14:18;;;;;;;4.85;2.20;;;13.00;99.90;;;;;;5074142;28;20044;-66
2023/10/05 06:16:44;;;;;;;7.10;2.05;;;13.00;99.90;;;;;;5072244;28;20366;-65
2023/10/05 06:19:11;;;;;;;8.52;2.05;;;13.10;99.90;;;;;;5073571;28;20055;-65
2023/10/05 06:21:37;;;;;;;5.05;1.77;;;13.10;99.90;;;;;;5073709;28;20040;-65
2023/10/05 06:24:03;;;;;;;5.90;1.90;;;13.10;99.90;;;;;;5073719;28;20040;-65
2023/10/05 06:26:30;;;;;;;5.20;2.10;;;13.20;99.90;;;;;;5073627;28;20048;-65
2023/10/05 06:28:56;;;;;;;5.45;1.83;;;13.20;99.90;;;;;;5072697;28;20056;-65
2023/10/05 06:31:22;;;;;;;5.25;2.30;;;13.30;99.90;;;;;;5073812;28;20087;-65
2023/10/05 06:33:48;;;;;;;6.00;1.85;;;13.30;99.90;;;;;;5073960;28;20052;-65
2023/10/05 06:36:13;;;;;;;6.65;2.08;;;13.40;99.90;;;;;;5073531;28;20423;-65
2023/10/05 06:38:39;;;;;;;5.07;2.28;;;13.40;99.90;;;;;;5073900;28;20101;-65
2023/10/05 06:41:05;;;;;;;5.53;1.60;;;13.40;99.90;;;;;;5073406;28;20127;-65
2023/10/05 06:43:35;;;;;;;7.18;1.95;;;13.40;99.90;;;;;;5073477;28;20052;-65
2023/10/05 06:46:14;;;;;;;4.07;1.90;;;13.50;99.90;;;;;;5073496;28;20044;-65
2023/10/05 06:48:40;;;;;;;6.00;2.00;;;13.50;99.90;;;;;;5073595;28;20053;-65
2023/10/05 06:51:07;;;;;;;5.55;1.83;;;13.50;99.90;;;;;;5074217;28;20363;-65
2023/10/05 06:53:32;;;;;;;3.50;1.98;;;13.50;99.90;;;;;;5073372;28;20053;-65
2023/10/05 06:55:58;;;;;;;4.93;1.80;;;13.60;99.90;;;;;;5073409;28;20093;-66
2023/10/05 06:58:24;;;;;;;6.28;1.83;;;13.60;99.90;;;;;;5073284;28;20124;-66
2023/10/05 07:00:51;;;;;;;9.05;2.20;;;13.70;99.90;;;;;;5073321;28;20059;-65
2023/10/05 07:03:16;;;;;;;5.80;1.90;;;13.70;99.90;;;;;;5073340;28;20073;-65
2023/10/05 07:05:42;;;;;;;6.05;1.83;;;13.80;99.90;;;;;;5073868;28;20048;-65
2023/10/05 07:08:08;;;;;;;5.70;2.10;;;13.70;99.90;;;;;;5072722;28;20101;-66
2023/10/05 07:10:34;;;;;;;6.95;2.53;;;13.80;99.90;;;;;;5072670;28;20087;-66
2023/10/05 07:12:59;;;;;;;4.47;1.95;;;13.80;99.90;;;;;;5073343;28;20048;-66
2023/10/05 07:15:25;;;;;;;5.97;1.80;;;13.80;99.90;;;;;;5072799;28;20102;-66
2023/10/05 07:17:51;;;;;;;5.75;2.00;;;13.90;99.90;;;;;;5072041;28;20119;-66
2023/10/05 07:20:20;;;;;;;3.95;1.80;;;13.90;99.90;;;;;;5072930;28;20044;-65
2023/10/05 07:22:47;;;;;;;7.57;1.92;;;13.90;99.90;;;;;;5073082;28;20393;-66
2023/10/05 07:25:23;;;;;;;6.55;1.75;;;13.90;99.90;;;;;;5072832;28;20048;-65
2023/10/05 07:27:49;;;;;;;4.80;1.85;;;13.90;99.90;;;;;;5072284;28;20087;-65
2023/10/05 07:30:15;;;;;;;4.82;2.15;;;14.00;99.90;;;;;;5075183;28;20106;-65
2023/10/05 07:32:40;;;;;;;6.35;1.95;;;14.00;99.90;;;;;;5076394;28;20048;-65
2023/10/05 07:35:08;;;;;;;6.05;2.30;;;14.00;99.90;;;;;;5076419;28;20048;-65
2023/10/05 07:37:35;;;;;;;5.32;2.10;;;14.10;99.90;;;;;;5075716;28;20056;-64
2023/10/05 07:40:04;;;;;;;6.50;1.85;;;14.10;99.90;;;;;;5075527;28;20141;-64
2023/10/05 07:42:30;;;;;;;8.32;2.83;;;14.10;99.90;;;;;;5075076;28;20375;-64
2023/10/05 07:44:57;;;;;;;5.30;2.03;;;14.10;99.90;;;;;;5076203;28;20052;-64
2023/10/05 07:47:24;;;;;;;4.47;1.88;;;14.10;99.90;;;;;;5076382;28;20095;-65
2023/10/05 07:49:52;;;;;;;5.90;2.65;;;14.10;99.90;;;;;;5075957;28;20049;-65
2023/10/05 07:52:19;;;;;;;4.32;1.90;;;14.10;99.90;;;;;;5075083;28;20056;-64
2023/10/05 07:54:44;;;;;;;4.47;1.52;;;14.20;99.90;;;;;;5076109;28;20049;-64
2023/10/05 07:57:11;;;;;;;6.15;2.30;;;14.20;99.90;;;;;;5075567;28;20128;-65
2023/10/05 07:59:41;;;;;;;3.78;1.95;;;14.20;99.90;;;;;;5076201;28;20040;-64
2023/10/05 08:02:07;;;;;;;5.90;2.28;;;14.30;99.90;;;;;;5076648;28;20453;-66
2023/10/05 08:04:33;;;;;;;6.22;2.20;;;14.40;99.90;;;;;;5076066;28;20128;-65
2023/10/05 08:06:59;;;;;;;7.78;2.25;;;14.40;99.90;;;;;;5076029;28;20091;-66
2023/10/05 08:09:26;;;;;;;5.15;2.10;;;14.50;99.90;;;;;;5075700;28;20082;-66
2023/10/05 08:11:53;;;;;;;6.15;2.00;;;14.60;99.90;;;;;;5075950;28;20121;-66
2023/10/05 08:14:20;;;;;;;5.93;1.95;;;14.60;99.90;;;;;;5076024;28;20049;-66
2023/10/05 08:16:50;;;;;;;4.38;1.98;;;14.60;99.90;;;;;;5075198;28;20082;-66
2023/10/05 08:19:16;;;;;;;6.68;2.20;;;14.60;99.90;;;;;;5075712;28;20036;-66
2023/10/05 08:21:42;;;;;;;4.70;1.95;;;14.60;99.90;;;;;;5076358;28;20051;-65
2023/10/05 08:24:08;;;;;;;11.63;3.28;;;14.60;99.90;;;;;;5075773;28;20045;-65
2023/10/05 08:26:35;;;;;;;5.50;2.20;;;14.70;99.90;;;;;;5074632;28;20048;-65
2023/10/05 08:29:01;;;;;;;6.30;1.98;;;14.70;99.90;;;;;;5075380;28;20551;-65
2023/10/05 08:31:28;;;;;;;6.95;1.95;;;14.70;99.90;;;;;;5075535;28;20120;-65
2023/10/05 08:33:54;;;;;;;4.80;1.80;;;14.70;99.90;;;;;;5075547;28;20052;-65
2023/10/05 08:36:23;;;;;;;4.53;2.15;;;14.80;99.90;;;;;;5075975;28;20044;-64
2023/10/05 08:38:50;;;;;;;4.65;1.85;;;14.90;99.90;;;;;;5075750;28;20153;-65
2023/10/05 08:41:24;;;;;;;8.95;2.28;;;15.00;99.90;;;;;;5074730;28;20048;-65
2023/10/05 08:43:54;;;;;;;6.03;2.53;;;15.20;99.90;;;;;;5076268;28;20044;-65
2023/10/05 08:46:21;;;;;;;6.57;2.10;;;15.20;99.90;;;;;;5075123;28;20052;-66
2023/10/05 08:48:46;;;;;;;7.22;2.20;;;15.30;99.90;;;;;;5075810;28;20056;-66
2023/10/05 08:51:13;;;;;;;5.32;2.05;;;15.30;99.90;;;;;;5075240;28;20447;-66
2023/10/05 08:53:55;;;;;;;6.55;2.28;;;15.30;99.90;;;;;;5075138;28;20055;-66
2023/10/05 08:56:22;;;;;;;6.78;2.20;;;15.30;99.90;;;;;;5075602;28;20106;-66
2023/10/05 08:58:49;;;;;;;7.78;2.17;;;15.40;99.90;;;;;;5074225;28;20053;-65
2023/10/05 09:01:35;;;;;;;3.45;1.90;;;15.40;99.90;;;;;;5075026;28;20111;-66
2023/10/05 09:04:23;;;;;;;5.95;1.90;;;15.50;99.90;;;;;;5075017;28;20086;-66
2023/10/05 09:06:57;;;;;;;6.13;1.80;;;15.50;99.90;;;;;;5074525;28;20084;-66
2023/10/05 09:09:39;;;;;;;4.40;1.73;;;15.50;99.90;;;;;;5075787;28;20048;-66
2023/10/05 09:12:46;;;;;;;8.60;1.95;;;15.60;99.90;;;;;;5074829;28;20045;-66
2023/10/05 09:15:21;;;;;;;4.93;1.90;;;15.60;99.90;;;;;;5073925;28;20145;-66
2023/10/05 09:18:38;;;;;;;5.18;2.10;;;15.70;99.90;;;;;;5075389;28;20052;-66
2023/10/05 09:20:49;;;;;;;5.47;1.77;;;15.60;99.90;;;;;;5071399;28;20504;-65
2023/10/05 09:23:20;;;;;;;9.93;2.15;;;15.70;99.90;;;;;;5074891;28;20499;-65
2023/10/05 09:25:46;;;;;;;5.45;2.05;;;15.70;99.90;;;;;;5074727;28;20488;-65
2023/10/05 09:28:28;;;;;;;5.82;1.75;;;15.70;99.90;;;;;;5074215;28;20048;-65
2023/10/05 09:31:07;;;;;;;7.32;2.50;;;15.80;99.90;;;;;;5074523;28;20048;-65
2023/10/05 09:33:36;;;;;;;8.93;2.42;;;15.70;99.90;;;;;;5074447;28;20055;-66
2023/10/05 09:36:22;;;;;;;6.75;1.80;;;15.70;99.90;;;;;;5074610;28;20041;-66
2023/10/05 09:38:51;;;;;;;9.32;2.35;;;15.50;99.90;;;;;;5075193;28;20051;-65
2023/10/05 09:41:19;;;;;;;6.50;2.15;;;15.40;99.90;;;;;;5074321;28;20048;-66
2023/10/05 09:43:54;;;;;;;6.35;2.15;;;15.40;99.90;;;;;;5074853;28;20037;-65
2023/10/05 09:46:22;;;;;;;7.45;2.30;;;15.40;99.90;;;;;;5073056;28;20153;-64
2023/10/05 09:48:48;;;;;;;6.15;2.00;;;15.50;99.90;;;;;;5074110;28;20055;-64
2023/10/05 09:51:14;;;;;;;7.25;2.15;;;15.50;99.90;;;;;;5073945;28;20048;-65
2023/10/05 09:53:42;;;;;;;5.60;2.50;;;15.50;99.90;;;;;;5073805;28;20040;-65
2023/10/05 09:56:12;;;;;;;7.05;2.50;;;15.60;99.90;;;;;;5073673;28;20044;-65
2023/10/05 09:58:40;;;;;;;8.20;2.30;;;15.50;99.90;;;;;;5074708;28;20044;-65
2023/10/05 10:01:20;;;;;;;5.47;2.75;;;15.50;99.90;;;;;;5073985;28;20055;-65
2023/10/05 10:03:48;;;;;;;6.30;2.13;;;15.50;99.90;;;;;;5074304;28;20049;-65
2023/10/05 10:06:18;;;;;;;7.38;2.60;;;15.50;99.90;;;;;;5073877;28;20059;-65
2023/10/05 10:08:55;;;;;;;5.88;2.30;;;15.50;99.90;;;;;;5073853;28;20473;-65
2023/10/05 10:11:31;;;;;;;8.88;2.13;;;15.40;99.90;;;;;;5074619;28;20123;-66
2023/10/05 10:14:03;;;;;;;7.60;2.47;;;15.30;99.90;;;;;;5074661;28;20425;-66
2023/10/05 10:16:32;;;;;;;4.63;2.05;;;15.30;99.90;;;;;;5073697;28;20060;-65
2023/10/05 10:19:20;;;;;;;5.10;2.20;;;15.40;99.90;;;;;;5073615;28;20052;-65
2023/10/05 10:22:07;;;;;;;5.70;2.45;;;15.40;99.90;;;;;;5074012;28;20098;-66
2023/10/05 10:24:34;;;;;;;7.65;2.45;;;15.50;99.90;;;;;;5073400;28;20131;-65
2023/10/05 10:27:07;;;;;;;6.72;2.53;;;15.60;99.90;;;;;;5073829;28;20103;-66
2023/10/05 10:29:45;;;;;;;4.65;2.17;;;15.70;99.90;;;;;;5073914;28;20462;-65
2023/10/05 10:32:18;;;;;;;6.25;2.13;;;15.70;99.90;;;;;;5072603;28;20056;-66
2023/10/05 10:34:52;;;;;;;6.95;2.40;;;15.70;99.90;;;;;;5073631;28;20397;-66
2023/10/05 10:37:36;;;;;;;7.68;2.45;;;15.60;99.90;;;;;;5073506;28;20052;-65
2023/10/05 10:42:53;;;;;;;8.02;3.03;;;15.40;99.90;;;;;;5073501;28;20095;-65
2023/10/05 10:45:28;;;;;;;8.48;2.33;;;15.30;99.90;;;;;;5073614;28;20083;-65
2023/10/05 10:47:55;;;;;;;7.07;2.40;;;15.30;99.90;;;;;;5072895;28;20057;-65
2023/10/05 10:50:29;;;;;;;8.32;2.67;;;15.30;99.90;;;;;;5072110;28;20489;-66
2023/10/05 10:52:55;;;;;;;8.20;2.78;;;15.30;99.90;;;;;;5073278;28;20145;-66
2023/10/05 10:55:26;;;;;;;6.18;2.60;;;15.20;99.90;;;;;;5073310;28;20052;-65
2023/10/05 10:57:53;;;;;;;6.25;2.60;;;15.20;99.90;;;;;;5073691;28;20420;-65
2023/10/05 11:03:12;;;;;;;7.32;2.40;;;15.20;99.90;;;;;;5073586;28;20048;-65
2023/10/05 11:05:52;;;;;;;4.65;2.47;;;15.20;99.90;;;;;;5077607;28;20047;-65
2023/10/05 11:08:21;;;;;;;8.48;2.47;;;15.20;99.90;;;;;;5077965;28;20049;-66
2023/10/05 11:11:16;;;;;;;6.70;2.58;;;15.20;99.90;;;;;;5077214;28;20041;-65
2023/10/05 11:13:43;;;;;;;8.93;2.78;;;15.20;99.90;;;;;;5077218;28;20049;-65
2023/10/05 11:16:09;;;;;;;5.70;2.78;;;15.10;99.90;;;;;;5077183;28;20054;-65
2023/10/05 11:18:39;;;;;;;8.18;1.83;;;15.00;99.90;;;;;;5077083;28;20044;-65
2023/10/05 11:21:14;;;;;;;5.72;1.52;;;14.90;99.90;;;;;;5075836;28;20557;-65
2023/10/05 11:23:47;;;;;;;1.92;1.20;;;14.80;99.90;;;;;;5076932;28;20367;-65
2023/10/05 11:26:33;;;;;;;3.85;1.33;;;14.70;99.90;;;;;;5077565;28;20473;-67
2023/10/05 11:29:07;;;;;;;3.80;1.20;;;14.50;99.90;;;;;;5077470;28;20064;-67
2023/10/05 11:31:34;;;;;;;2.97;1.35;;;14.50;99.90;;;;;;5074931;28;20485;-80
2023/10/05 11:34:04;;;;;;;4.90;1.30;;;14.40;99.90;;;;;;5078542;28;20048;-78
2023/10/05 11:36:33;;;;;;;3.92;1.33;;;14.40;99.90;;;;;;5078433;28;20129;-79
2023/10/05 11:39:00;;;;;;;3.80;1.45;;;14.40;99.90;;;;;;5078747;28;20044;-77
2023/10/05 11:41:30;;;;;;;3.38;1.48;;;14.50;99.90;;;;;;5076878;28;20048;-77
2023/10/05 11:43:56;;;;;;;3.95;1.48;;;14.50;99.90;;;;;;5077444;28;20453;-80
2023/10/05 11:46:46;;;;;;;3.58;1.60;;;14.60;99.90;;;;;;5076283;28;20056;-78
2023/10/05 11:49:15;;;;;;;3.22;1.60;;;14.60;99.90;;;;;;5076926;28;20045;-78
2023/10/05 11:51:56;;;;;;;4.90;1.85;;;14.70;99.90;;;;;;5076239;28;20064;-79
2023/10/05 11:54:32;;;;;;;4.72;2.20;;;14.70;99.90;;;;;;5076011;28;20051;-79
2023/10/05 11:57:04;;;;;;;;;;;14.80;99.90;;;;;;5076782;28;20045;-78
2023/10/05 11:59:31;;;;;;;6.53;2.30;;;14.80;99.90;;;;;;5076324;28;19979;-78
2023/10/05 12:01:57;;;;;;;4.53;2.15;;;14.80;99.90;;;;;;5076214;28;20044;-78
2023/10/05 12:04:23;;;;;;;6.38;2.58;;;14.90;99.90;;;;;;5075160;28;20094;-83
2023/10/05 12:06:59;;;;;;;4.75;2.10;;;14.90;99.90;;;;;;5076138;28;20041;-79
2023/10/05 12:09:32;;;;;;;6.30;2.30;;;15.00;99.90;;;;;;5075131;28;20051;-76
2023/10/05 12:12:10;;;;;;;7.05;1.92;;;15.20;99.90;;;;;;5074783;28;20048;-78
2023/10/05 12:14:36;;;;;;;3.40;1.70;;;15.20;99.90;;;;;;5075659;28;20048;-79
2023/10/05 12:17:02;;;;;;;4.22;1.70;;;15.20;99.90;;;;;;5076365;28;20135;-77
2023/10/05 12:19:29;;;;;;;6.25;2.00;;;15.20;99.90;;;;;;5074450;28;20074;-79
2023/10/05 12:21:56;;;;;;;4.68;2.17;;;15.20;99.90;;;;;;5058041;28;20045;-76
2023/10/05 12:24:22;;;;;;;5.50;2.15;;;15.40;99.90;;;;;;5074576;28;20489;-87
2023/10/05 12:26:50;;;;;;;7.55;2.15;;;15.60;99.90;;;;;;5075349;28;20071;-79
2023/10/05 12:29:16;;;;;;;5.28;1.95;;;15.80;99.90;;;;;;5075536;28;20047;-87
2023/10/05 12:31:44;;;;;;;4.88;2.58;;;16.00;99.90;;;;;;5075171;28;20124;-87
2023/10/05 12:34:16;;;;;;;6.53;2.38;;;16.20;99.90;;;;;;5073870;28;20045;-84
2023/10/05 12:36:45;;;;;;;6.55;2.40;;;16.50;99.90;;;;;;5075854;28;20126;-83
2023/10/05 12:39:12;;;;;;;6.75;2.25;;;16.70;99.90;;;;;;5073828;28;20083;-84
2023/10/05 12:41:46;;;;;;;6.13;2.00;;;16.70;99.90;;;;;;5075009;28;20135;-81
2023/10/05 12:44:15;;;;;;;5.80;2.50;;;16.60;99.90;;;;;;5073942;28;20041;-81
2023/10/05 12:46:42;;;;;;;4.32;2.10;;;16.60;99.90;;;;;;5074818;28;20060;-83
2023/10/05 12:49:09;;;;;;;6.05;2.20;;;16.60;99.90;;;;;;5073568;28;20067;-83
2023/10/05 12:51:39;;;;;;;4.15;2.00;;;16.70;99.90;;;;;;5074778;28;20140;-82
2023/10/05 12:54:09;;;;;;;4.88;2.20;;;16.70;99.90;;;;;;5074669;28;20139;-80
2023/10/05 12:56:40;;;;;;;4.25;2.03;;;16.70;99.90;;;;;;5074786;28;20091;-78
2023/10/05 12:59:07;;;;;;;6.35;2.00;;;16.80;99.90;;;;;;5075419;28;20050;-80
2023/10/05 13:01:41;;;;;;;7.68;2.03;;;16.90;99.90;;;;;;5074853;28;20052;-78
2023/10/05 13:04:14;;;;;;;5.70;2.38;;;17.00;99.90;;;;;;5074866;28;20472;-78
2023/10/05 13:06:41;;;;;;;7.72;2.13;;;17.20;99.90;;;;;;5074851;28;20056;-79
2023/10/05 13:09:18;;;;;;;3.42;2.03;;;17.30;99.90;;;;;;5107761;28;20041;-79
2023/10/05 13:11:45;;;;;;;4.45;1.55;;;17.30;99.90;;;;;;5075196;28;20040;-77
2023/10/05 13:14:19;;;;;;;6.13;1.90;;;17.30;99.90;;;;;;5074333;28;20501;-76
2023/10/05 13:16:48;;;;;;;7.50;1.67;;;17.20;99.90;;;;;;5075179;28;20393;-80
2023/10/05 13:19:14;;;;;;;6.50;1.70;;;17.10;99.90;;;;;;5074613;28;20477;-80
2023/10/05 13:21:42;;;;;;;5.97;2.08;;;17.00;99.90;;;;;;5074479;28;20075;-80
2023/10/05 13:24:12;;;;;;;4.60;1.70;;;16.90;99.90;;;;;;5074428;28;20075;-81
2023/10/05 13:26:44;;;;;;;5.47;1.85;;;16.90;99.90;;;;;;5074802;28;20048;-80
2023/10/05 13:29:17;;;;;;;4.63;2.00;;;16.80;99.90;;;;;;5074443;28;20098;-83
2023/10/05 13:31:46;;;;;;;4.45;2.08;;;16.90;99.90;;;;;;5074907;28;20044;-82
2023/10/05 13:34:16;;;;;;;5.85;1.77;;;16.90;99.90;;;;;;5074601;28;20128;-83
2023/10/05 13:36:51;;;;;;;6.47;1.70;;;16.90;99.90;;;;;;5074238;28;20049;-82